MET: Información y Pronóstico Aeronáutico

MET: Información y Pronóstico Aeronáutico

///////////////////////////////////////////////////////////////////////////////////////////////////////////////////////////////////////////////////////////////////////////////////////////////////////////////////////////////////////////////

15 DE JUNIO 2018

INFORMACION METEOROLOGICA AERONAUTICA (METAR) 18:00 UTC

Aeropuerto AEROPARQUE J. NEWBERY

15 - 17:00 METAR SABE 151700Z 16004KT 130V230 9999 FEW038 11/00 Q1033 NOSIG =

Aeropuerto BAHIA BLANCA

15 - 17:00 METAR SAZB 151700Z 32012KT CAVOK 10/03 Q1031 =

Aeropuerto BARILOCHE

15 - 17:00 METAR SAZS 151700Z 14003KT 9999 OVC012 01/M04 Q1023 =

Aeropuerto CATAMARCA

15 - 17:00 METAR SANC 151700Z 09006KT CAVOK 15/M02 Q1028 =

Aeropuerto CHAPELCO

15 - 17:00 METAR SAZY 151700Z 00000KT 9999 SCT018 SCT025 M01/M01 Q1022 =

Aeropuerto COMODORO RIVADAVIA

15 - 17:00 METAR SAVC 151700Z 29012G22KT 240V340 CAVOK 13/01 Q1013 =

Aeropuerto CORDOBA

15 - 17:00 METAR SACO 151700Z 05013KT CAVOK 12/M00 Q1030 NOSIG =

Aeropuerto CORRIENTES

15 - 17:00 METAR SARC 151700Z 16006KT 9999 SCT025 SCT100 BKN200 11/02 Q1032 =

Aeropuerto EL CALAFATE

15 - 17:00 METAR SAWC 151700Z 14004KT 9999 FEW030 05/01 Q1006 =

Aeropuerto EL PALOMAR

15 - 18:00 METAR SADP 151800Z 23005KT 9999 SCT038 11/01 Q1032 =

Aeropuerto ESQUEL

15 - 17:00 METAR SAVE 151700Z 05002KT 9999 FEW035 SCT050 02/M03 Q1019 =

Aeropuerto EZEIZA

15 - 17:00 METAR SAEZ 151600Z 18003KT 9999 FEW018 10/03 Q1033 NOSIG =

Aeropuerto FORMOSA

15 - 17:00 METAR SARF 151700Z 14007KT 9999 SCT020 OVC100 12/05 Q1031 =

Aeropuerto IGUAZU/CATARATAS

15 - 17:00 METAR SARI 151700Z 18008KT 9999 FEW025 BKN200 12/07 Q1027 =

Aeropuerto JUJUY

15 - 17:00 METAR SASJ 151700Z 09005KT 9999 BKN015 10/02 Q1031 =

Aeropuerto LA RIOJA

15 - 17:00 METAR SANL 151700Z 32005KT CAVOK 13/00 Q1030 =

Aeropuerto MALARGUE

15 - 17:00 METAR SAMM 151700Z 32003KT 9999 FEW025 SCT090 04/M04 Q1026 =

Aeropuerto MAR DEL PLATA

15 - 17:00 METAR SAZM 151700Z 27004KT 180V270 9999 SCT026 SCT035 10/03 Q1032 =

Aeropuerto MENDOZA

15 - 17:00 METAR SAME 151600Z 14004KT CAVOK 07/M04 Q1028 =

Aeropuerto MORON

15 - 17:00 METAR SADM 151700Z 20005KT 9999 FEW030 11/04 Q1032 =

Aeropuerto NEUQUEN

15 - 17:00 METAR SAZN 151700Z 36002KT 7000 FU NSC 04/00 Q1026 =

Aeropuerto PARANA

15 - 17:00 METAR SAAP 151700Z 18004KT 9999 FEW025 11/02 Q1034 =

Aeropuerto POSADAS

15 - 17:00 METAR SARP 151700Z 11012KT 9999 SCT015 SCT100 OVC200 11/02 Q1030 =

Aeropuerto PUERTO MADRYN

15 - 17:00 METAR SAVY 151700Z 32015KT CAVOK 11/01 Q1019 =

Aeropuerto RECONQUISTA

15 - 17:00 METAR SATR 151700Z 14008KT 9999 BKN020 11/04 Q1032 =

Aeropuerto RESISTENCIA

15 - 17:00 METAR SARE 151700Z 14005KT 9999 BKN033 BKN200 10/03 Q1032 =

Aeropuerto RIO CUARTO

15 - 16:00 METAR SAOC 151600Z 36017G28KT CAVOK 12/M04 Q1029 =

Aeropuerto RIO GALLEGOS

15 - 17:00 METAR SAWG 151700Z 32003KT CAVOK 07/03 Q1004 =

Aeropuerto RIO GRANDE

15 - 17:00 METAR SAWE 151700Z 29007KT CAVOK 06/04 Q1000 =

Aeropuerto ROSARIO

15 - 17:00 METAR SAAR 151700Z 18004KT CAVOK 11/00 Q1033 =

Aeropuerto SALTA

15 - 17:00 METAR SASA 151700Z 05005KT 9999 SCT020 BKN100 08/M01 Q1030 =

Aeropuerto SAN FERNANDO

15 - 17:00 METAR SADF 151700Z 14003KT 9999 SCT030 11/01 Q1033 =

Aeropuerto SAN JUAN

15 - 17:00 METAR SANU 151700Z 02002KT CAVOK 10/M04 Q1028 =

Aeropuerto SAN LUIS

15 - 17:00 METAR SAOU 151700Z 32012KT CAVOK 11/M02 Q1028 =

Aeropuerto SAN RAFAEL

15 - 17:00 METAR SAMR 151700Z 36012KT CAVOK 13/M06 Q1026 =

Aeropuerto SANTA ROSA

15 - 17:00 METAR SAZR 151700Z 36018KT CAVOK 10/01 Q1031 =

Aeropuerto SANTIAGO DEL ESTERO

15 - 17:00 METAR SANE 151700Z 07003KT CAVOK 14/00 Q1032 =

Aeropuerto SAUCE VIEJO

15 - 17:00 METAR SAAV 151700Z 18004KT 9999 FEW020 12/02 Q1033 =

Aeropuerto TANDIL

15 - 17:00 METAR SAZT 151700Z 32004KT 9999 FEW025 09/00 Q1032 =

Aeropuerto TERMAS DE RIO HONDO

15 - 17:00 METAR SANR 151700Z 18006KT CAVOK 12/02 Q1033 =

Aeropuerto TRELEW

15 - 17:00 METAR SAVT 151700Z 32010KT CAVOK 08/M03 Q1019 =

Aeropuerto TUCUMAN

15 - 17:00 METAR SANT 151700Z 07010KT 7000 FEW035 13/01 Q1031 =

Aeropuerto USHUAIA

15 - 17:00 METAR SAWH 151700Z 36006KT CAVOK 07/02 Q0998 =

Aeropuerto VIEDMA

15 - 17:00 METAR SAVV 151700Z 34015KT CAVOK 10/07 Q1027 =

Aeropuerto VILLA REYNOLDS

15 - 17:00 METAR SAOR 151700Z 36008KT 9999 FEW035 14/M03 Q1029 =

 

 PRONOSTICO DE AERODROMO (TAF) 17:00 UTC

 

Estación AEROPARQUE J. NEWBERY

15 - 17:00 TAF SABE 151700Z 1518/1618 16005KT 9999 FEW035 CAVOK TX13/1618Z TN06/1610Z BECMG 1521/1523 VRB03KT CAVOK BECMG 1612/1614 34010KT =

Estación BAHIA BLANCA

15 - 17:00 TAF SAZB 151700Z 1518/1618 32015KT CAVOK TX13/1618Z TN00/1610Z BECMG 1603/1616 36020KT =

Estación BARILOCHE

15 - 17:00 TAF SAZS 151700Z 1518/1618 29005KT 9999 OVC015 TX05/1618Z TN03/1610Z TEMPO 1603/1607 5000 -SNRA BKN015 BECMG 1608/1610 32010KT 9999 BKN020 BECMG 1613/1615 29015KT SCT025 SCT035 =

Estación CATAMARCA

15 - 17:00 TAF SANC 151700Z 1518/1618 02015KT 9999 SCT045 TX18/1618Z TN01/1610Z =

Estación CHAPELCO

15 - 17:00 TAF SAZY 151700Z 1518/1618 VRB05KT 9999 SCT015 BKN025 TX05/1600Z TN00/1518Z BECMG 1521/1600 36005KT 8000 DZ OVC010 PROB30 1606/1612 27015KT 2000 BR BKN008 BECMG 1612/1615 9999 SCT010 SCT030 =

Estación COMODORO RIVADAVIA

15 - 17:00 TAF SAVC 151700Z 1518/1618 32010KT 9999 BKN030 BKN060 TX13/1519Z TN05/1608Z PROB30 TEMPO 1520/1522 VRB08KT CAVOK BECMG 1600/1604 29015G25KT BKN030 BKN050 =

Estación CORDOBA

15 - 17:00 TAF SACO 151700Z 1518/1618 05005KT 9999 SCT040 TX16/1618Z TNM02/1609Z BECMG 1606/1609 32005KT 9999 SCT035 =

Estación CORRIENTES

15 - 17:00 TAF SARC 151700Z 1518/1618 16005KT 9999 BKN030 BKN100 TX15/1618Z TN03/1610Z BECMG 1523/1601 CAVOK PROB30 1609/1611 3000 BR NSC =

Estación EL CALAFATE

15 - 17:00 TAF SAWC 151700Z 1518/1618 11008KT 9999 SCT030 BKN060 TX04/1518Z TN02/1608Z PROB30 TEMPO 1600/1602 7000 SHRASN SCT010 BKN020 OVC050 =

Estación EL PALOMAR

15 - 17:00 TAF SADP 151700Z 1518/1618 18005KT 9999 SCT020 TX13/1618Z TN02/1610Z BECMG 1600/1603 120005KT CAVOK PROB30 1609/1612 VRB05KT 5000 MIFG BECMG 1613/1615 CAVOK =

Estación ESQUEL

15 - 17:00 TAF SAVE 151700Z 1518/1618 VRB06KT 9999 BKN030 BKN060 TX04/1519Z TN01/1608Z BECMG 1518/1521 34005KT BKN025 SCT040 =

Estación EZEIZA

15 - 17:00 TAF SAEZ 151700Z 1518/1618 18005KT 9999 SCT030 TX12/1618Z TN02/1610Z BECMG 1600/1603 12005KT CAVOK PROB30 1606/1612 34005KT 5000 MIFG BR BECMG 1613/1615 CAVOK =

Estación FORMOSA

15 - 11:00 TAF SARF 151100Z 1512/1612 23005KT CAVOK TX13/1518Z TN02/1610Z PROB30 1514/1520 9999 BKN030 BECMG 1609/1611 3000 BR =

Estación IGUAZU/CATARATAS

15 - 11:00 TAF SARI 151100Z 1512/1612 18010KT CAVOK TX14/1518Z TN04/1610Z BECMG 1515/1517 9999 BKN030 PROB30 1609/1611 3000 BR =

Estación JUJUY

15 - 17:00 TAF SASJ 151700Z 1518/1618 VRB03KT 9999 BKN025 TX15/1618Z TN04/1610Z BECMG 1606/1609 23005KT 9999 OVC020 =

Estación LA RIOJA

15 - 17:00 TAF SANL 151700Z 1518/1618 18005KT 9999 SCT050 TX15/1618Z TNM02/1610Z =

Estación MAR DEL PLATA

15 - 17:00 TAF SAZM 151700Z 1518/1618 VRB02KT 9999 BKN040 TX11/1618Z TN00/1610Z BECMG 1520/1523 30010KT 9999 SCT040 BECMG 1606/1609 32015G25KT CAVOK =

Estación MENDOZA

15 - 17:00 TAF SAME 151700Z 1518/1618 09005KT CAVOK TX12/1520Z TN00/1610Z =

Estación NEUQUEN

15 - 17:00 TAF SAZN 151700Z 1518/1618 32005KT 7000 BR NSC TX17/1618Z TN05/1610Z BECMG 1523/1601 VRB03KT CAVOK BECMG 1712/1614 27010KT =

Estación PARANA

15 - 17:00 TAF SAAP 151700Z 1518/1618 09005KT CAVOK TX12/1618Z TN00/1610Z PROB30 1606/1612 05005KT 5000 BR =

Estación POSADAS

15 - 11:00 TAF SARP 151100Z 1512/1612 14005KT CAVOK TX12/1518Z TN03/1610Z PROB30 1514/1520 9999 BKN030 BECMG 1609/1611 3000 BR =

Estación RESISTENCIA

15 - 11:00 TAF SARE 151100Z 1512/1612 19005KT 6000 NSC TX14/1518Z TN03/1610Z PROB30 1515/1521 9999 BKN030 BECMG 1522/1524 CAVOK PROB30 1609/1611 3000 BR NSC =

Estación RIO GALLEGOS

15 - 17:00 TAF SAWG 151700Z 1518/1618 29005KT CAVOK TX07/1518Z TN02/1609Z BECMG 1520/1522 02008KT 9999 SCT020 BKN030 BKN060 =

Estación RIO GRANDE

15 - 17:00 TAF SAWE 151700Z 1518/1618 25010KT 9999 BKN020 BKN040 TX05/1519Z TN02/1610Z BECMG 1600/1602 34010KTG25KT 7000 RA SCT020 BKN060 =

Estación ROSARIO

15 - 17:00 TAF SAAR 151700Z 1518/1618 16005KT CAVOK TX12/1518Z TN04/1610Z BECMG 1600/1602 05003KT BECMG 1608/1610 2000 BR NSC BECMG 1612/1613 02010KT CAVOK =

Estación SALTA

15 - 17:00 TAF SASA 151700Z 1518/1618 05005KT SCT020 TX13/1618Z TN03/1610Z FEW030 BECMG 1606/1609 18005KT 9999 SCT020 =

Estación SAN FERNANDO

15 - 17:00 TAF SADF 151700Z 1518/1618 18005KT 9999 SCT030 TX12/1618Z TN03/1610Z BECMG 1521/1523 VRB02KT CAVOK BECMG 1609/1611 34005KT =

Estación SAN JUAN

15 - 17:00 TAF SANU 151700Z 1518/1618 36005KT CAVOK TX13/1520Z TNM01/1610Z =

Estación SAN LUIS

15 - 17:00 TAF SAOU 151700Z 1518/1618 36010KT CAVOK TX12/1519Z TN03/1609Z =

Estación SAN RAFAEL

15 - 17:00 TAF SAMR 151700Z 1518/1618 02010KT 9999 FEW040 TX13/1520Z TNM01/1610Z BECMG 1600/1602 VRB03KT CAVOK =

Estación SANTA ROSA

15 - 17:00 TAF SAZR 151700Z 1518/1618 36015KT CAVOK TX13/1618Z TN00/1610Z BECMG 1520/1522 9999 SCT020 SCT050 BECMG 1600/1603 CAVOK PROB30 1606/1612 36005KT 5000 BR BECMG 1612/1615 36010KT CAVOK =

Estación SANTIAGO DEL ESTERO

15 - 17:00 TAF SANE 151100Z 1512/1612 05005KT 9999 FEW030 TX16/1618Z TNM02/1610Z =

Estación SAUCE VIEJO

15 - 17:00 TAF SAAV 151700Z 1518/1618 0905KT CAVOK TX13/1518Z TN02/1610Z PROB30 1606/1612 05005KT 5000 BR =

Estación TERMAS DE RIO HONDO

15 - 17:00 TAF SANR 151700Z 1518/1618 18005KT 9999 SCT035 TX14/1618Z TNM03/1610Z BECMG 09/1612 =

Estación TRELEW

15 - 17:00 TAF SAVT 151700Z 1518/1618 34010KT CAVOK TX09/1519Z TN02/1610Z BECMG 1600/1602 27020KT SCT030 SCT080 =

Estación TUCUMAN

15 - 17:00 TAF SANT 151700Z 1518/1618 18005KT 5000 FU NSC TX14/1618Z TN01/1610Z BECMG 1603/1606 32005KT 9999 SCT030 =

Estación USHUAIA

15 - 17:00 TAF SAWH 151700Z 1518/1618 VRB08KT 9999 SCT030 BKN060 TX07/1519Z TN03/1610Z BECMG 1600/1604 3000 SHRASN SCT010 BKN030 OVC040 =

Estación VIEDMA

15 - 17:00 TAF SAVV 151700Z 1518/1618 34015KT CAVOK TX10/1519Z TN05/1608Z TEMPO 1520/1600 32025KT BKN030 SCT090 =